KGIF/GIF METAR and TAF weather

Enter ICAO airport designator
Station Type Date Time Source
KGIF METAR 2020/07/15 04:53 UTC NOAA

KGIF 150453Z AUTO 28003KT 10SM FEW027 SCT036 BKN055 27/24 A3008 RMK AO2 SLP183 T02720239 403440261


Station Type Date Time Source
KGIF Decoded METAR 2020/07/15 04:53 UTC NOAA

WINTER HAVENS GILBERT AIRPORT , FL, United States (KGIF) 28-04N 81-45W 43M
Jul 15, 2020 - 12:53 AM EDT / 2020.07.15 0453 UTC
Wind: from the W (280 degrees) at 3 MPH (3 KT):0
Visibility: 10 mile(s):0
Sky conditions: mostly cloudy
Temperature: 81.0 F (27.2 C)
Dew Point: 75.0 F (23.9 C)
Relative Humidity: 82%
Pressure (altimeter): 30.08 in. Hg (1018 hPa)
ob: KGIF 150453Z AUTO 28003KT 10SM FEW027 SCT036 BKN055 27/24 A3008 RMK AO2 SLP183 T02720239 403440261
cycle: 5

Station Type Date Time Source
KGIF TAF UTC NOAA

Error!

Example: see airport list